Time;durP1;ratioP1;P1;durP2;ratioP2;P2;SDS_P1;SDS_P2;PMS_P1;PMS_P2;Temp;Humidity;BMP_temperature;BMP_pressure;BME280_temperature;BME280_humidity;BME280_pressure;Samples;Min_cycle;Max_cycle;Signal;HPM_P1;HPM_P2
2022/11/15 00:01:42;;;;;;;66.43;31.73;;;;;;;4.69;76.42;94508.03;5062031;28;20193;-80
2022/11/15 00:04:07;;;;;;;65.53;30.55;;;;;;;4.68;76.65;94509.09;5062173;28;20033;-81
2022/11/15 00:06:33;;;;;;;74.50;32.00;;;;;;;4.68;76.79;94503.81;5062105;28;20029;-81
2022/11/15 00:08:59;;;;;;;72.78;31.88;;;;;;;4.69;76.99;94492.19;5061909;28;20032;-81
2022/11/15 00:11:25;;;;;;;63.30;31.05;;;;;;;4.66;76.84;94498.00;5062041;28;20025;-81
2022/11/15 00:13:51;;;;;;;63.67;31.92;;;;;;;4.66;76.40;94492.72;5061965;28;20040;-81
2022/11/15 00:16:16;;;;;;;68.53;30.20;;;;;;;4.60;76.13;94484.00;5061984;28;20075;-81
2022/11/15 00:18:42;;;;;;;70.32;32.22;;;;;;;4.60;76.85;94491.91;5061863;28;20021;-80
2022/11/15 00:21:11;;;;;;;68.43;33.35;;;;;;;4.60;76.30;94491.91;5065242;28;20330;-81
2022/11/15 00:23:37;;;;;;;74.60;33.33;;;;;;;4.59;76.59;94482.41;5065528;28;20017;-84
2022/11/15 00:26:03;;;;;;;67.43;33.40;;;;;;;4.58;76.70;94480.78;5065503;28;20020;-79
2022/11/15 00:28:29;;;;;;;80.72;34.72;;;;;;;4.53;76.56;94478.94;5065285;28;20029;-78
2022/11/15 00:31:00;;;;;;;73.68;33.40;;;;;;;4.50;76.55;94468.91;5065352;28;20048;-79
2022/11/15 00:33:26;;;;;;;61.40;30.13;;;;;;;4.51;76.19;94474.97;5065146;28;20029;-79
2022/11/15 00:35:51;;;;;;;63.90;30.40;;;;;;;4.47;75.93;94461.50;5065502;28;20044;-79
2022/11/15 00:38:17;;;;;;;59.55;29.13;;;;;;;4.44;75.79;94467.31;5065140;28;20021;-78
2022/11/15 00:40:42;;;;;;;71.70;31.60;;;;;;;4.43;75.60;94466.50;5065117;28;20199;-80
2022/11/15 00:43:08;;;;;;;62.15;30.42;;;;;;;4.42;75.43;94466.78;5064925;28;20009;-78
2022/11/15 00:45:33;;;;;;;60.10;29.02;;;;;;;4.41;75.55;94465.19;5065153;28;20021;-80
2022/11/15 00:47:58;;;;;;;54.00;27.60;;;;;;;4.38;75.47;94468.34;5065120;28;20137;-81
2022/11/15 00:50:24;;;;;;;64.30;29.52;;;;;;;4.36;75.50;94475.72;5064868;28;20021;-81
2022/11/15 00:52:49;;;;;;;59.22;28.95;;;;;;;4.32;75.83;94477.31;5064834;28;20136;-80
2022/11/15 00:55:19;;;;;;;63.20;29.45;;;;;;;4.33;75.80;94473.59;5064797;28;20237;-81
2022/11/15 00:57:46;;;;;;;60.95;29.88;;;;;;;4.26;76.19;94467.78;5064940;28;20045;-82
2022/11/15 01:00:12;;;;;;;61.67;30.23;;;;;;;4.22;76.73;94467.50;5064787;28;20315;-82
2022/11/15 01:02:37;;;;;;;70.63;30.05;;;;;;;4.22;76.69;94465.63;5064857;28;20039;-82
2022/11/15 01:05:03;;;;;;;65.13;32.05;;;;;;;4.19;76.70;94463.53;5064714;28;20021;-82
2022/11/15 01:07:29;;;;;;;64.95;33.67;;;;;;;4.19;77.16;94462.72;5064667;28;20067;-81
2022/11/15 01:09:54;;;;;;;72.80;32.40;;;;;;;4.19;77.21;94458.25;5063590;28;20311;-82
2022/11/15 01:12:20;;;;;;;62.70;28.83;;;;;;;4.21;77.53;94458.78;5064324;28;20048;-81
2022/11/15 01:14:45;;;;;;;65.90;32.03;;;;;;;4.25;78.15;94455.63;5064459;28;20044;-81
2022/11/15 01:17:10;;;;;;;68.75;29.23;;;;;;;4.27;78.80;94464.84;5064505;28;20052;-81
2022/11/15 01:19:36;;;;;;;61.95;27.55;;;;;;;4.27;78.45;94464.84;5064386;28;20084;-81
2022/11/15 01:22:01;;;;;;;66.20;28.50;;;;;;;4.29;78.59;94461.97;5064311;28;20028;-81
2022/11/15 01:24:27;;;;;;;59.15;28.20;;;;;;;4.31;79.00;94454.59;5064210;28;20031;-80
2022/11/15 01:26:53;;;;;;;61.80;27.83;;;;;;;4.31;79.17;94449.31;5064230;28;20032;-80
2022/11/15 01:29:18;;;;;;;60.63;28.20;;;;;;;4.30;79.05;94453.81;5064350;28;20150;-81
2022/11/15 01:31:44;;;;;;;54.80;26.85;;;;;;;4.31;78.94;94449.31;5063780;28;20025;-81
2022/11/15 01:34:09;;;;;;;52.30;24.88;;;;;;;4.31;78.85;94454.59;5064026;28;20029;-81
2022/11/15 01:36:35;;;;;;;59.13;26.30;;;;;;;4.31;78.98;94449.31;5062881;28;20100;-81
2022/11/15 01:39:00;;;;;;;60.25;27.15;;;;;;;4.31;78.55;94457.22;5063959;28;20028;-81
2022/11/15 01:41:32;;;;;;;49.05;24.98;;;;;;;4.28;78.21;94447.19;5064010;28;20044;-81
2022/11/15 01:44:36;;;;;;;51.25;24.95;;;;;;;4.31;78.28;94451.94;5063905;28;20023;-81
2022/11/15 01:47:06;;;;;;;68.30;28.02;;;;;;;4.29;78.25;94448.78;5063914;28;20258;-81
2022/11/15 01:49:35;;;;;;;47.47;24.38;;;;;;;4.31;78.51;94450.09;5062849;28;20024;-81
2022/11/15 01:52:03;;;;;;;57.55;24.85;;;;;;;4.33;77.85;94455.13;5062545;28;20064;-81
2022/11/15 01:54:29;;;;;;;61.72;25.17;;;;;;;4.33;77.60;94436.66;5063720;28;20028;-81
2022/11/15 01:57:06;;;;;;;55.55;23.35;;;;;;;4.34;77.63;94446.16;5096064;28;20032;-80
2022/11/15 01:59:32;;;;;;;47.10;21.15;;;;;;;4.33;77.42;94444.56;5062336;28;20243;-81
2022/11/15 02:01:58;;;;;;;48.33;22.52;;;;;;;4.32;77.26;94443.00;5063663;28;20138;-79
2022/11/15 02:04:28;;;;;;;42.90;20.30;;;;;;;4.32;76.74;94448.28;5063602;28;20025;-79
2022/11/15 02:06:53;;;;;;;33.30;16.65;;;;;;;4.29;76.47;94448.78;5063444;28;20377;-80
2022/11/15 02:09:19;;;;;;;39.28;16.80;;;;;;;4.20;76.29;94441.34;5063450;28;20088;-80
2022/11/15 02:11:46;;;;;;;34.28;18.38;;;;;;;4.19;76.09;94442.41;5063243;28;20223;-81
2022/11/15 02:14:14;;;;;;;44.40;19.25;;;;;;;4.14;75.91;94441.59;5063461;28;20024;-81
2022/11/15 02:17:02;;;;;;;44.35;19.15;;;;;;;4.12;75.88;94436.56;5063393;28;20021;-81
2022/11/15 02:19:33;;;;;;;42.22;22.05;;;;;;;4.08;76.10;94434.72;5063381;28;20032;-81
2022/11/15 02:22:36;;;;;;;52.25;23.88;;;;;;;4.07;75.94;94439.22;5063311;28;20071;-82
2022/11/15 02:25:32;;;;;;;55.90;25.17;;;;;;;4.06;76.54;94429.69;5063123;28;20226;-82
2022/11/15 02:28:22;;;;;;;53.88;25.67;;;;;;;4.04;76.79;94442.34;5062989;28;20024;-82
2022/11/15 02:30:58;;;;;;;52.65;25.77;;;;;;;4.04;77.06;94438.91;5063094;28;20196;-82
2022/11/15 02:33:41;;;;;;;63.50;26.30;;;;;;;3.99;77.21;94437.84;5063150;28;20031;-83
2022/11/15 02:36:14;;;;;;;58.17;25.88;;;;;;;4.03;77.31;94432.88;5062908;28;20020;-83
2022/11/15 02:39:02;;;;;;;50.47;25.00;;;;;;;4.02;77.30;94425.97;5063010;28;20028;-83
2022/11/15 02:41:42;;;;;;;49.42;24.77;;;;;;;4.02;77.34;94428.63;5062396;28;20031;-83
2022/11/15 02:44:21;;;;;;;59.03;25.00;;;;;;;4.01;77.54;94432.31;5062644;28;20099;-83
2022/11/15 02:47:13;;;;;;;52.95;25.70;;;;;;;3.99;77.96;94424.66;5061585;28;20223;-83
2022/11/15 02:49:41;;;;;;;54.93;25.00;;;;;;;4.02;77.73;94437.31;5062871;28;20032;-83
2022/11/15 02:52:07;;;;;;;54.08;24.88;;;;;;;4.06;77.25;94434.19;5062705;28;20021;-83
2022/11/15 02:54:34;;;;;;;51.65;24.67;;;;;;;4.06;77.55;94437.59;5062766;28;20032;-82
2022/11/15 02:57:12;;;;;;;54.28;25.58;;;;;;;4.11;77.33;94442.09;5062690;28;20092;-83
2022/11/15 02:59:59;;;;;;;51.58;24.45;;;;;;;4.15;77.39;94440.53;5062773;28;20090;-83
2022/11/15 03:02:47;;;;;;;46.83;24.05;;;;;;;4.17;77.24;94438.44;5062768;28;20226;-84
2022/11/15 03:05:40;;;;;;;45.70;22.83;;;;;;;4.20;77.18;94438.72;5062813;28;20020;-84
2022/11/15 03:08:10;;;;;;;51.78;22.58;;;;;;;4.22;77.19;94447.16;5061314;28;20028;-84
2022/11/15 03:10:54;;;;;;;56.70;26.65;;;;;;;4.30;77.56;94439.81;5062458;28;20051;-84
2022/11/15 03:13:33;;;;;;;60.70;27.95;;;;;;;4.33;77.97;94439.28;5062488;28;20029;-83
2022/11/15 03:16:15;;;;;;;58.88;29.25;;;;;;;4.39;78.47;94432.97;5062496;28;20024;-83
2022/11/15 03:19:11;;;;;;;70.15;29.10;;;;;;;4.46;78.81;94438.00;5062531;28;20142;-83
2022/11/15 03:21:40;;;;;;;58.42;25.80;;;;;;;4.49;78.60;94430.34;5058951;28;20035;-83
2022/11/15 03:24:07;;;;;;;50.47;24.73;;;;;;;4.52;78.38;94426.41;5062496;28;20021;-83
2022/11/15 03:26:36;;;;;;;49.75;24.88;;;;;;;4.56;78.17;94428.28;5062227;28;20029;-83
2022/11/15 03:29:12;;;;;;;49.80;22.88;;;;;;;4.60;77.79;94424.06;5062402;28;20021;-83
2022/11/15 03:31:47;;;;;;;60.25;26.55;;;;;;;4.65;77.77;94427.75;5062259;28;20029;-82
2022/11/15 03:34:31;;;;;;;67.85;26.33;;;;;;;4.68;77.55;94421.94;5061075;28;20025;-82
2022/11/15 03:36:57;;;;;;;73.35;28.25;;;;;;;4.70;77.56;94425.13;5060836;28;20032;-81
2022/11/15 03:39:24;;;;;;;88.90;34.13;;;;;;;4.69;77.75;94419.03;5062375;28;20024;-81
2022/11/15 03:42:19;;;;;;;84.93;31.48;;;;;;;4.75;78.30;94417.22;5061009;28;20286;-81
2022/11/15 03:44:51;;;;;;;94.00;32.67;;;;;;;4.75;78.40;94407.44;5060970;28;20445;-81
2022/11/15 03:47:21;;;;;;;86.22;32.38;;;;;;;4.72;78.22;94407.16;5062089;28;20074;-80
2022/11/15 03:49:57;;;;;;;121.10;34.38;;;;;;;4.70;78.29;94404.00;5062024;28;20021;-80
2022/11/15 03:52:23;;;;;;;107.43;35.40;;;;;;;4.69;78.43;94394.50;5062225;28;20029;-82
2022/11/15 03:55:00;;;;;;;82.15;35.10;;;;;;;4.64;78.51;94395.28;5065122;28;20142;-81
2022/11/15 03:57:26;;;;;;;83.20;31.35;;;;;;;4.65;77.91;94396.88;5065786;28;20060;-81
2022/11/15 03:59:51;;;;;;;91.47;31.38;;;;;;;4.63;77.23;94398.97;5065985;28;20025;-81
2022/11/15 04:02:17;;;;;;;82.20;31.20;;;;;;;4.59;77.24;94396.06;5065854;28;20323;-82
2022/11/15 04:04:42;;;;;;;74.95;30.30;;;;;;;4.57;77.08;94395.53;5065629;28;20028;-81
2022/11/15 04:07:07;;;;;;;103.18;32.13;;;;;;;4.54;76.89;94397.88;5064499;28;20021;-81
2022/11/15 04:09:33;;;;;;;75.55;30.33;;;;;;;4.50;76.92;94402.91;5065955;28;20075;-81
2022/11/15 04:11:58;;;;;;;82.82;31.70;;;;;;;4.50;77.11;94404.75;5065754;28;20227;-80
2022/11/15 04:14:24;;;;;;;103.70;27.98;;;;;;;4.46;77.07;94393.94;5065745;28;20028;-80
2022/11/15 04:16:49;;;;;;;79.95;29.38;;;;;;;4.41;77.00;94396.56;5065626;28;20048;-80
2022/11/15 04:24:42;;;;;;;62.00;27.52;;;;;;;4.36;77.22;94389.41;5065332;28;20028;-80
2022/11/15 04:27:08;;;;;;;71.10;28.23;;;;;;;4.41;76.95;94386.78;5065367;28;20270;-81
2022/11/15 04:29:34;;;;;;;87.13;28.65;;;;;;;4.39;77.02;94375.69;5065394;28;20044;-80
2022/11/15 04:31:59;;;;;;;54.33;27.67;;;;;;;4.36;77.15;94383.34;5065107;28;20066;-81
2022/11/15 04:34:25;;;;;;;57.53;28.13;;;;;;;4.36;77.39;94389.41;5065308;28;20053;-81
2022/11/15 04:39:34;;;;;;;74.85;29.73;;;;;;;4.34;77.34;94396.03;5065203;28;20101;-82
2022/11/15 04:42:00;;;;;;;100.75;29.80;;;;;;;4.33;77.50;94389.94;5065230;28;20017;-82
2022/11/15 04:44:25;;;;;;;143.05;30.83;;;;;;;4.36;77.65;94388.63;5065140;28;20103;-82
2022/11/15 04:46:51;;;;;;;73.22;31.42;;;;;;;4.36;78.01;94388.63;5065016;28;20024;-81
2022/11/15 04:49:16;;;;;;;91.13;33.25;;;;;;;4.36;78.65;94394.69;5063676;28;20025;-82
2022/11/15 04:51:42;;;;;;;124.60;32.25;;;;;;;4.39;79.21;94388.09;5065010;28;20067;-81
2022/11/15 04:54:07;;;;;;;124.15;34.22;;;;;;;4.39;79.42;94391.53;5064962;28;20099;-81
2022/11/15 04:56:33;;;;;;;111.78;32.97;;;;;;;4.37;79.81;94391.00;5064900;28;20012;-82
2022/11/15 04:58:58;;;;;;;101.43;33.85;;;;;;;4.35;79.85;94392.31;5063480;28;20045;-82
2022/11/15 05:01:23;;;;;;;130.20;34.25;;;;;;;4.35;79.98;94389.69;5064574;28;20020;-81
2022/11/15 05:06:33;;;;;;;171.52;33.85;;;;;;;4.26;80.22;94393.88;5064018;28;20218;-82
2022/11/15 05:08:58;;;;;;;209.65;33.08;;;;;;;4.22;80.56;94394.41;5064439;28;20021;-82
2022/11/15 05:11:24;;;;;;;184.70;35.75;;;;;;;4.20;80.48;94391.22;5064633;28;20028;-82
2022/11/15 05:13:50;;;;;;;268.67;35.20;;;;;;;4.13;80.70;94395.16;5064378;28;20025;-82
2022/11/15 05:16:15;;;;;;;167.65;31.45;;;;;;;4.00;80.92;94394.59;5064583;28;20231;-82
2022/11/15 05:18:41;;;;;;;220.88;32.28;;;;;;;3.82;81.54;94401.09;5064379;28;20020;-82
2022/11/15 05:21:09;;;;;;;233.25;32.25;;;;;;;3.78;81.69;94394.75;5064429;28;20319;-82
2022/11/15 05:23:37;;;;;;;153.80;31.35;;;;;;;3.75;82.09;94397.13;5064072;28;20214;-82
2022/11/15 05:26:03;;;;;;;201.80;33.75;;;;;;;3.60;82.51;94389.91;5064426;28;20024;-83
2022/11/15 05:28:29;;;;;;;268.90;36.00;;;;;;;3.51;83.18;94400.16;5063936;28;20062;-82
2022/11/15 05:31:02;;;;;;;173.20;35.03;;;;;;;3.54;84.09;94393.56;5064317;28;20025;-82
2022/11/15 05:33:28;;;;;;;105.68;33.70;;;;;;;3.58;84.63;94395.47;5063992;28;20032;-82
2022/11/15 05:36:18;;;;;;;89.22;34.92;;;;;;;3.69;84.82;94392.88;5064212;28;20033;-82
2022/11/15 05:38:46;;;;;;;76.68;30.80;;;;;;;3.76;84.82;94391.56;5063984;28;20023;-82
2022/11/15 05:41:12;;;;;;;91.03;29.85;;;;;;;3.85;84.59;94389.25;5063890;28;20058;-82
2022/11/15 05:43:40;;;;;;;91.00;28.75;;;;;;;3.93;84.44;94385.31;5064116;28;20013;-83
2022/11/15 05:46:05;;;;;;;83.22;30.50;;;;;;;4.01;84.42;94390.91;5063710;28;20017;-83
2022/11/15 05:48:33;;;;;;;100.07;30.42;;;;;;;4.10;84.26;94385.13;5064033;28;20054;-82
2022/11/15 05:50:59;;;;;;;73.00;28.25;;;;;;;4.16;83.66;94390.16;5063815;28;20021;-82
2022/11/15 05:53:25;;;;;;;84.95;30.58;;;;;;;4.22;83.98;94394.41;5062460;28;20024;-83
2022/11/15 05:55:51;;;;;;;94.47;30.55;;;;;;;4.25;83.77;94392.28;5063855;28;20032;-83
2022/11/15 05:58:19;;;;;;;102.88;30.80;;;;;;;4.30;83.75;94389.69;5063445;28;20049;-83
2022/11/15 06:00:45;;;;;;;123.05;29.13;;;;;;;4.33;83.88;94395.22;5063613;28;20021;-83
2022/11/15 06:03:10;;;;;;;126.43;29.73;;;;;;;4.34;83.78;94396.03;5063489;28;20044;-83
2022/11/15 06:05:36;;;;;;;141.50;28.75;;;;;;;4.40;82.93;94402.91;5063457;28;20092;-84
2022/11/15 06:08:09;;;;;;;152.27;26.30;;;;;;;4.36;82.64;94404.47;5063329;28;20043;-83
2022/11/15 06:10:37;;;;;;;104.22;26.67;;;;;;;4.31;82.72;94402.59;5062328;28;20142;-83
2022/11/15 06:13:20;;;;;;;141.68;28.23;;;;;;;4.25;82.89;94398.34;5063482;28;20339;-84
2022/11/15 06:15:55;;;;;;;147.57;28.58;;;;;;;4.22;83.22;94404.94;5063383;28;20029;-82
2022/11/15 06:18:20;;;;;;;197.80;28.95;;;;;;;4.11;83.90;94403.34;5062378;28;20021;-82
2022/11/15 06:20:46;;;;;;;205.32;32.95;;;;;;;4.11;84.11;94403.34;5063105;28;20029;-81
2022/11/15 06:23:11;;;;;;;170.82;32.47;;;;;;;4.10;84.44;94409.66;5062981;28;20025;-79
2022/11/15 06:25:37;;;;;;;135.80;32.47;;;;;;;4.11;84.46;94403.34;5063167;28;20029;-84
2022/11/15 06:28:05;;;;;;;170.73;33.95;;;;;;;4.13;84.86;94410.97;5063117;28;20028;-81
2022/11/15 06:30:31;;;;;;;139.25;31.85;;;;;;;4.11;85.37;94405.16;5062988;28;20024;-81
2022/11/15 06:33:04;;;;;;;126.18;30.90;;;;;;;4.12;85.71;94399.63;5062893;28;20048;-82
2022/11/15 06:35:33;;;;;;;143.27;31.80;;;;;;;4.20;85.73;94401.78;5063008;28;20029;-80
2022/11/15 06:38:04;;;;;;;122.32;30.85;;;;;;;4.27;85.57;94393.59;5062924;28;20306;-81
2022/11/15 06:40:29;;;;;;;90.20;30.50;;;;;;;4.33;85.43;94395.22;5062849;28;20033;-80
2022/11/15 06:43:01;;;;;;;93.05;31.38;;;;;;;4.37;85.37;94387.56;5063031;28;20062;-80
2022/11/15 06:45:26;;;;;;;160.27;30.65;;;;;;;4.42;85.36;94395.50;5062606;28;20071;-80
2022/11/15 06:47:52;;;;;;;131.45;31.45;;;;;;;4.46;84.01;94388.66;5062932;28;20052;-80
2022/11/15 06:50:17;;;;;;;108.95;31.35;;;;;;;4.45;83.83;94394.97;5062613;28;20040;-80
2022/11/15 06:52:43;;;;;;;96.57;30.05;;;;;;;4.47;84.61;94389.44;5062685;28;20307;-78
2022/11/15 06:55:08;;;;;;;110.85;30.70;;;;;;;4.55;84.65;94391.56;5062598;28;20056;-78
2022/11/15 06:57:34;;;;;;;157.88;31.00;;;;;;;4.58;83.96;94393.66;5062760;28;20044;-81
2022/11/15 07:00:00;;;;;;;122.18;32.72;;;;;;;4.57;83.20;94394.75;5061425;28;20311;-80
2022/11/15 07:02:28;;;;;;;112.35;32.33;;;;;;;4.56;83.35;94395.78;5062709;28;20021;-81
2022/11/15 07:04:53;;;;;;;96.40;31.88;;;;;;;4.53;83.52;94391.03;5062924;28;20025;-83
2022/11/15 07:07:21;;;;;;;91.18;31.35;;;;;;;4.58;84.16;94397.13;5062635;28;20017;-83
2022/11/15 07:09:46;;;;;;;114.10;35.60;;;;;;;4.63;83.93;94397.13;5062456;28;20036;-83
2022/11/15 07:12:11;;;;;;;108.28;32.30;;;;;;;4.61;83.75;94391.31;5062647;28;20092;-81
2022/11/15 07:14:37;;;;;;;109.25;33.40;;;;;;;4.67;84.14;94389.47;5062540;28;20025;-82
2022/11/15 07:17:05;;;;;;;98.05;32.13;;;;;;;4.69;83.84;94381.28;5062447;28;20016;-82
2022/11/15 07:19:31;;;;;;;106.75;34.45;;;;;;;4.75;84.13;94381.03;5062368;28;20227;-82
2022/11/15 07:21:56;;;;;;;102.80;31.98;;;;;;;4.87;83.86;94383.41;5062519;28;20047;-83
2022/11/15 07:24:25;;;;;;;82.07;34.58;;;;;;;4.95;83.30;94385.53;5062642;28;20033;-82
2022/11/15 07:26:50;;;;;;;124.13;38.10;;;;;;;5.02;82.99;94380.75;5062340;28;20027;-82
2022/11/15 07:29:16;;;;;;;146.63;38.08;;;;;;;5.02;81.44;94386.03;5064425;28;20116;-82
2022/11/15 07:31:41;;;;;;;154.38;37.70;;;;;;;4.94;80.87;94393.72;5066299;28;20025;-81
2022/11/15 07:34:06;;;;;;;116.18;36.33;;;;;;;4.91;81.25;94397.69;5065317;28;20033;-81
2022/11/15 07:36:32;;;;;;;118.13;36.60;;;;;;;4.91;81.53;94392.41;5066470;28;20070;-83
2022/11/15 07:38:57;;;;;;;103.38;35.08;;;;;;;4.89;81.18;94391.88;5065980;28;20021;-83
2022/11/15 07:41:23;;;;;;;125.88;35.53;;;;;;;4.63;81.98;94383.91;5066451;28;20135;-83
2022/11/15 07:43:53;;;;;;;89.88;36.00;;;;;;;4.61;82.67;94391.31;5066367;28;20084;-82
2022/11/15 07:46:19;;;;;;;105.78;37.08;;;;;;;4.76;83.17;94393.19;5066150;28;20192;-82
2022/11/15 07:48:45;;;;;;;101.22;36.75;;;;;;;4.84;82.76;94394.50;5065870;28;20028;-82
2022/11/15 07:51:15;;;;;;;98.25;35.67;;;;;;;4.93;81.98;94392.13;5066133;28;20021;-81
2022/11/15 07:53:44;;;;;;;173.60;34.05;;;;;;;4.93;81.26;94390.28;5065939;28;20045;-81
2022/11/15 07:56:10;;;;;;;146.23;36.50;;;;;;;4.89;81.36;94389.22;5065718;28;20326;-81
2022/11/15 07:58:36;;;;;;;96.70;32.33;;;;;;;4.88;81.85;94387.63;5065639;28;20083;-80
2022/11/15 08:01:09;;;;;;;163.05;39.50;;;;;;;4.95;82.49;94390.81;5065993;28;20017;-81
2022/11/15 08:03:35;;;;;;;129.30;40.58;;;;;;;5.00;81.95;94393.44;5065649;28;20059;-81
2022/11/15 08:06:05;;;;;;;157.35;40.85;;;;;;;5.05;82.05;94384.75;5064526;28;20021;-81
2022/11/15 08:08:30;;;;;;;128.05;42.53;;;;;;;5.10;82.13;94381.28;5064183;28;20037;-81
2022/11/15 08:10:59;;;;;;;214.98;41.80;;;;;;;5.13;81.55;94378.09;5065561;28;20040;-81
2022/11/15 08:13:25;;;;;;;164.98;41.17;;;;;;;5.12;81.55;94385.25;5065595;28;20277;-79
2022/11/15 08:15:50;;;;;;;172.23;42.53;;;;;;;5.24;81.49;94387.63;5065505;28;20033;-79
2022/11/15 08:18:16;;;;;;;120.60;44.33;;;;;;;5.24;80.69;94387.63;5065589;28;20044;-79
2022/11/15 08:20:42;;;;;;;143.55;44.13;;;;;;;5.22;80.28;94382.59;5065528;28;20033;-78
2022/11/15 08:23:10;;;;;;;220.80;47.17;;;;;;;5.12;80.73;94376.53;5065510;28;20036;-79
2022/11/15 08:25:36;;;;;;;143.55;47.53;;;;;;;5.09;81.72;94383.16;5065184;28;20075;-78
2022/11/15 08:28:06;;;;;;;126.07;45.25;;;;;;;5.09;81.95;94374.41;5065315;28;20235;-78
2022/11/15 08:30:41;;;;;;;197.60;51.92;;;;;;;5.04;81.74;94380.50;5065212;28;20315;-79
2022/11/15 08:33:11;;;;;;;182.63;53.50;;;;;;;5.04;81.95;94380.50;5065412;28;20028;-81
2022/11/15 08:35:36;;;;;;;160.48;57.83;;;;;;;5.12;82.47;94379.19;5065453;28;20013;-80
2022/11/15 08:38:02;;;;;;;167.50;61.78;;;;;;;5.12;82.31;94381.81;5065308;28;20334;-80
2022/11/15 08:40:28;;;;;;;188.50;56.28;;;;;;;5.14;82.17;94363.84;5064269;28;20023;-78
2022/11/15 08:42:53;;;;;;;172.80;57.28;;;;;;;5.25;81.52;94368.06;5065189;28;20028;-78
2022/11/15 08:45:19;;;;;;;189.27;55.35;;;;;;;5.30;81.37;94359.34;5064051;28;20020;-77
2022/11/15 08:47:44;;;;;;;150.65;54.15;;;;;;;5.36;81.32;94352.97;5065129;28;20311;-79
2022/11/15 08:50:10;;;;;;;181.85;59.22;;;;;;;5.49;81.27;94359.56;5063890;28;20331;-77
2022/11/15 08:52:35;;;;;;;162.63;56.03;;;;;;;5.53;80.96;94360.59;5064715;28;20017;-78
2022/11/15 08:55:01;;;;;;;195.80;56.60;;;;;;;5.64;80.73;94359.53;5064818;28;20032;-78
2022/11/15 08:57:30;;;;;;;158.73;53.35;;;;;;;5.67;79.83;94358.97;5064752;28;20064;-77
2022/11/15 08:59:55;;;;;;;165.27;55.63;;;;;;;5.74;79.69;94345.44;5064814;28;20030;-77
2022/11/15 09:02:21;;;;;;;177.43;55.63;;;;;;;5.79;79.11;94340.16;5064904;28;20268;-76
2022/11/15 09:04:46;;;;;;;170.25;58.20;;;;;;;5.80;79.17;94345.19;5064792;28;20048;-78
2022/11/15 09:07:13;;;;;;;175.02;56.88;;;;;;;5.81;79.02;94343.31;5064613;28;20048;-77
2022/11/15 09:09:38;;;;;;;174.50;55.50;;;;;;;5.80;78.87;94334.59;5064549;28;20326;-77
2022/11/15 09:12:06;;;;;;;147.20;55.13;;;;;;;5.79;78.76;94340.94;5064353;28;20036;-77
2022/11/15 09:14:31;;;;;;;167.90;57.13;;;;;;;5.81;78.85;94332.75;5064729;28;20219;-78
2022/11/15 09:16:58;;;;;;;159.02;56.20;;;;;;;5.83;79.10;94320.81;5063338;28;20016;-77
2022/11/15 09:19:23;;;;;;;153.38;54.05;;;;;;;5.94;79.04;94321.59;5064479;28;20027;-78
2022/11/15 09:21:49;;;;;;;144.52;52.75;;;;;;;5.95;78.25;94315.25;5064135;28;20025;-79
2022/11/15 09:24:14;;;;;;;140.90;53.67;;;;;;;5.99;78.07;94318.16;5064446;28;20530;-77
2022/11/15 09:26:40;;;;;;;151.13;57.50;;;;;;;5.95;78.08;94327.69;5064089;28;20067;-77
2022/11/15 09:29:06;;;;;;;148.65;54.00;;;;;;;5.91;78.46;94319.47;5063858;28;20017;-75
2022/11/15 09:31:32;;;;;;;167.02;54.90;;;;;;;5.95;78.69;94314.47;5064229;28;20102;-76
2022/11/15 09:33:57;;;;;;;163.20;54.08;;;;;;;6.01;79.07;94305.44;5064133;28;20059;-78
2022/11/15 09:36:23;;;;;;;152.35;58.75;;;;;;;6.13;78.30;94305.09;5064057;28;20286;-79
2022/11/15 09:38:49;;;;;;;150.65;55.63;;;;;;;6.12;78.09;94314.09;5063912;28;20017;-78
2022/11/15 09:41:14;;;;;;;166.68;59.28;;;;;;;6.11;77.74;94308.03;5063924;28;20024;-79
2022/11/15 09:44:04;;;;;;;155.65;58.95;;;;;;;6.13;77.60;94300.59;5064184;28;20021;-78
2022/11/15 09:46:55;;;;;;;153.68;56.75;;;;;;;6.21;77.90;94299.25;5064259;28;20025;-78
2022/11/15 09:49:21;;;;;;;168.45;57.45;;;;;;;6.36;77.87;94285.09;5063884;28;20040;-80
2022/11/15 09:51:50;;;;;;;140.15;54.05;;;;;;;6.48;77.53;94293.47;5063445;28;20045;-79
2022/11/15 09:54:39;;;;;;;137.52;52.97;;;;;;;6.69;76.97;94288.03;5063802;28;20025;-80
2022/11/15 09:57:16;;;;;;;158.40;56.42;;;;;;;6.77;75.73;94280.25;5063660;28;20021;-80
2022/11/15 10:00:19;;;;;;;139.57;54.28;;;;;;;6.75;75.59;94281.63;5063699;28;20040;-78
2022/11/15 10:03:10;;;;;;;136.00;52.13;;;;;;;6.90;75.67;94273.53;5056748;28;20081;-76
2022/11/15 10:05:39;;;;;;;141.90;54.78;;;;;;;6.99;75.29;94271.06;5043838;28;20033;-77
2022/11/15 10:08:30;;;;;;;149.98;57.65;;;;;;;7.08;75.15;94265.94;5063846;28;20048;-79
2022/11/15 10:11:02;;;;;;;140.20;56.08;;;;;;;7.17;74.61;94266.94;5063407;28;20028;-77
2022/11/15 10:13:33;;;;;;;135.43;53.92;;;;;;;7.30;74.59;94258.28;5063382;28;20049;-79
2022/11/15 10:16:22;;;;;;;150.20;57.90;;;;;;;7.54;74.49;94249.53;5063340;28;20028;-78
2022/11/15 10:19:15;;;;;;;144.50;56.35;;;;;;;7.69;73.83;94257.28;5057891;28;20106;-78
2022/11/15 10:22:07;;;;;;;158.05;55.50;;;;;;;7.86;72.71;94242.75;5063277;28;20024;-80
2022/11/15 10:24:37;;;;;;;134.15;53.88;;;;;;;8.02;71.69;94236.19;5063132;28;20012;-78
2022/11/15 10:27:10;;;;;;;152.63;56.72;;;;;;;8.06;71.93;94241.69;5063172;28;20096;-78
2022/11/15 10:29:36;;;;;;;152.82;57.20;;;;;;;8.12;71.91;94229.91;5061968;28;20020;-78
2022/11/15 10:32:01;;;;;;;141.57;54.92;;;;;;;8.35;72.12;94233.56;5062857;28;20334;-78
2022/11/15 10:34:27;;;;;;;152.35;55.92;;;;;;;8.58;71.27;94235.34;5061837;28;20215;-78
2022/11/15 10:37:01;;;;;;;148.43;57.42;;;;;;;8.73;70.45;94228.19;5062991;28;20406;-78
2022/11/15 10:39:27;;;;;;;136.15;56.03;;;;;;;8.85;70.30;94217.88;5062938;28;20062;-78
2022/11/15 10:41:53;;;;;;;136.63;52.47;;;;;;;8.92;70.21;94212.22;5063211;28;20242;-77
2022/11/15 10:44:29;;;;;;;130.00;53.42;;;;;;;8.97;69.78;94204.91;5062896;28;20084;-77
2022/11/15 10:46:55;;;;;;;135.68;52.50;;;;;;;9.08;69.16;94202.06;5062901;28;20254;-77
2022/11/15 10:49:30;;;;;;;124.13;51.47;;;;;;;9.11;68.73;94201.47;5063141;28;20020;-78
2022/11/15 10:52:00;;;;;;;129.07;51.28;;;;;;;8.99;67.98;94197.41;5062618;28;20029;-78
2022/11/15 10:54:28;;;;;;;114.00;50.15;;;;;;;9.03;67.90;94198.41;5062640;28;20361;-78
2022/11/15 10:56:59;;;;;;;125.65;50.60;;;;;;;9.06;68.62;94196.25;5062954;28;20028;-78
2022/11/15 10:59:29;;;;;;;127.82;51.67;;;;;;;9.01;67.12;94184.63;5062843;28;20112;-78
2022/11/15 11:01:54;;;;;;;116.97;50.35;;;;;;;9.08;67.01;94191.41;5062970;28;20440;-79
2022/11/15 11:04:21;;;;;;;125.53;54.30;;;;;;;9.19;67.18;94179.50;5062181;28;20035;-77
2022/11/15 11:07:22;;;;;;;108.18;48.63;;;;;;;9.29;66.66;94167.91;5062450;28;20060;-79
2022/11/15 11:10:16;;;;;;;115.43;52.50;;;;;;;9.45;65.92;94171.81;5050084;28;20033;-79
2022/11/15 11:12:41;;;;;;;110.72;49.50;;;;;;;9.55;65.40;94165.50;5062456;28;20049;-79
2022/11/15 11:15:13;;;;;;;109.60;49.20;;;;;;;9.66;64.88;94163.41;5062583;28;20319;-77
2022/11/15 11:17:53;;;;;;;119.80;50.78;;;;;;;9.69;64.81;94154.81;5062571;28;20124;-79
2022/11/15 11:20:23;;;;;;;108.50;48.10;;;;;;;9.76;64.71;94155.97;5062687;28;20218;-77
2022/11/15 11:23:16;;;;;;;115.13;48.00;;;;;;;9.87;63.54;94150.41;5062421;28;20032;-76
2022/11/15 11:26:16;;;;;;;93.60;43.08;;;;;;;9.79;63.08;94144.75;5062392;28;20361;-79
2022/11/15 11:28:50;;;;;;;98.88;45.63;;;;;;;9.89;62.74;94137.59;5062633;28;20219;-80
2022/11/15 11:31:38;;;;;;;93.18;44.53;;;;;;;9.97;62.19;94139.53;5061299;28;20230;-77
2022/11/15 11:34:10;;;;;;;100.13;44.30;;;;;;;10.04;62.29;94129.28;5061239;28;20032;-76
2022/11/15 11:36:59;;;;;;;104.45;46.47;;;;;;;10.14;62.52;94123.69;5061931;28;20158;-78
2022/11/15 11:40:08;;;;;;;104.05;43.08;;;;;;;10.23;62.31;94116.53;5062306;28;20323;-75
2022/11/15 11:42:59;;;;;;;87.35;41.95;;;;;;;10.41;61.90;94106.81;5062296;28;20021;-76
2022/11/15 11:45:36;;;;;;;93.65;42.25;;;;;;;10.54;60.80;94105.16;5061095;28;20407;-74
2022/11/15 11:48:28;;;;;;;100.07;43.80;;;;;;;10.59;60.37;94097.03;5062422;28;20218;-76